sensor_id;sensor_type;location;lat;lon;timestamp;P1;durP1;ratioP1;P2;durP2;ratioP2
16524;SDS011;8375;33.594;-117.718;2023-03-07T00:00:56;3.50;;;0.80;;
16524;SDS011;8375;33.594;-117.718;2023-03-07T00:03:25;2.73;;;0.70;;
16524;SDS011;8375;33.594;-117.718;2023-03-07T00:06:01;2.23;;;0.80;;
16524;SDS011;8375;33.594;-117.718;2023-03-07T00:08:33;3.67;;;0.83;;
16524;SDS011;8375;33.594;-117.718;2023-03-07T00:11:07;2.30;;;0.60;;
16524;SDS011;8375;33.594;-117.718;2023-03-07T00:13:55;2.10;;;0.87;;
16524;SDS011;8375;33.594;-117.718;2023-03-07T00:16:40;3.00;;;0.83;;
16524;SDS011;8375;33.594;-117.718;2023-03-07T00:19:14;2.40;;;0.70;;
16524;SDS011;8375;33.594;-117.718;2023-03-07T00:21:47;3.70;;;0.97;;
16524;SDS011;8375;33.594;-117.718;2023-03-07T00:24:28;3.17;;;1.00;;
16524;SDS011;8375;33.594;-117.718;2023-03-07T00:27:12;3.93;;;0.90;;
16524;SDS011;8375;33.594;-117.718;2023-03-07T00:29:47;3.87;;;1.13;;
16524;SDS011;8375;33.594;-117.718;2023-03-07T00:32:24;2.67;;;0.70;;
16524;SDS011;8375;33.594;-117.718;2023-03-07T00:35:08;3.63;;;0.83;;
16524;SDS011;8375;33.594;-117.718;2023-03-07T00:37:39;2.00;;;0.80;;
16524;SDS011;8375;33.594;-117.718;2023-03-07T00:40:11;3.03;;;0.80;;
16524;SDS011;8375;33.594;-117.718;2023-03-07T00:42:40;1.90;;;0.53;;
16524;SDS011;8375;33.594;-117.718;2023-03-07T00:45:10;3.67;;;0.83;;
16524;SDS011;8375;33.594;-117.718;2023-03-07T00:47:45;1.43;;;0.60;;
16524;SDS011;8375;33.594;-117.718;2023-03-07T00:50:15;3.70;;;0.90;;
16524;SDS011;8375;33.594;-117.718;2023-03-07T00:52:50;2.13;;;0.53;;
16524;SDS011;8375;33.594;-117.718;2023-03-07T00:55:21;1.97;;;0.70;;
16524;SDS011;8375;33.594;-117.718;2023-03-07T00:57:53;3.43;;;0.70;;
16524;SDS011;8375;33.594;-117.718;2023-03-07T01:00:27;2.33;;;0.70;;
16524;SDS011;8375;33.594;-117.718;2023-03-07T01:03:00;5.77;;;0.83;;
16524;SDS011;8375;33.594;-117.718;2023-03-07T01:05:37;2.50;;;0.80;;
16524;SDS011;8375;33.594;-117.718;2023-03-07T01:08:06;1.97;;;0.80;;
16524;SDS011;8375;33.594;-117.718;2023-03-07T01:10:37;2.40;;;0.70;;
16524;SDS011;8375;33.594;-117.718;2023-03-07T01:13:06;2.37;;;0.83;;
16524;SDS011;8375;33.594;-117.718;2023-03-07T01:15:42;3.53;;;1.00;;
16524;SDS011;8375;33.594;-117.718;2023-03-07T01:18:14;1.27;;;0.60;;
16524;SDS011;8375;33.594;-117.718;2023-03-07T01:20:46;0.70;;;0.50;;
16524;SDS011;8375;33.594;-117.718;2023-03-07T01:23:20;4.00;;;0.67;;
16524;SDS011;8375;33.594;-117.718;2023-03-07T01:25:49;3.87;;;1.00;;
16524;SDS011;8375;33.594;-117.718;2023-03-07T01:28:23;3.53;;;0.80;;
16524;SDS011;8375;33.594;-117.718;2023-03-07T01:30:58;2.03;;;0.63;;
16524;SDS011;8375;33.594;-117.718;2023-03-07T01:33:33;0.87;;;0.70;;
16524;SDS011;8375;33.594;-117.718;2023-03-07T01:36:14;2.93;;;0.87;;
16524;SDS011;8375;33.594;-117.718;2023-03-07T01:38:46;3.87;;;0.87;;
16524;SDS011;8375;33.594;-117.718;2023-03-07T01:41:16;4.37;;;0.80;;
16524;SDS011;8375;33.594;-117.718;2023-03-07T01:43:47;2.77;;;0.90;;
16524;SDS011;8375;33.594;-117.718;2023-03-07T01:46:19;4.73;;;0.70;;
16524;SDS011;8375;33.594;-117.718;2023-03-07T01:49:03;5.97;;;1.17;;
16524;SDS011;8375;33.594;-117.718;2023-03-07T01:51:38;2.80;;;0.80;;
16524;SDS011;8375;33.594;-117.718;2023-03-07T01:54:10;4.47;;;1.07;;
16524;SDS011;8375;33.594;-117.718;2023-03-07T01:56:42;3.83;;;1.10;;
16524;SDS011;8375;33.594;-117.718;2023-03-07T01:59:18;6.40;;;1.10;;
16524;SDS011;8375;33.594;-117.718;2023-03-07T02:01:54;5.40;;;1.13;;
16524;SDS011;8375;33.594;-117.718;2023-03-07T02:04:31;3.70;;;1.30;;
16524;SDS011;8375;33.594;-117.718;2023-03-07T02:07:05;7.30;;;1.20;;
16524;SDS011;8375;33.594;-117.718;2023-03-07T02:09:48;8.50;;;1.40;;
16524;SDS011;8375;33.594;-117.718;2023-03-07T02:12:30;3.60;;;1.00;;
16524;SDS011;8375;33.594;-117.718;2023-03-07T02:15:01;3.97;;;1.07;;
16524;SDS011;8375;33.594;-117.718;2023-03-07T02:17:39;4.70;;;1.20;;
16524;SDS011;8375;33.594;-117.718;2023-03-07T02:20:44;3.17;;;1.40;;
16524;SDS011;8375;33.594;-117.718;2023-03-07T02:23:42;5.00;;;1.00;;
16524;SDS011;8375;33.594;-117.718;2023-03-07T02:29:26;2.23;;;0.70;;
16524;SDS011;8375;33.594;-117.718;2023-03-07T02:32:16;3.90;;;1.00;;
16524;SDS011;8375;33.594;-117.718;2023-03-07T02:35:10;3.83;;;1.13;;
16524;SDS011;8375;33.594;-117.718;2023-03-07T02:38:02;3.40;;;1.07;;
16524;SDS011;8375;33.594;-117.718;2023-03-07T02:40:58;2.60;;;0.87;;
16524;SDS011;8375;33.594;-117.718;2023-03-07T02:43:44;5.27;;;1.20;;
16524;SDS011;8375;33.594;-117.718;2023-03-07T02:46:39;2.40;;;1.03;;
16524;SDS011;8375;33.594;-117.718;2023-03-07T02:49:11;3.23;;;1.10;;
16524;SDS011;8375;33.594;-117.718;2023-03-07T02:51:40;4.23;;;1.30;;
16524;SDS011;8375;33.594;-117.718;2023-03-07T02:54:10;4.57;;;1.33;;
16524;SDS011;8375;33.594;-117.718;2023-03-07T02:56:39;4.77;;;1.33;;
16524;SDS011;8375;33.594;-117.718;2023-03-07T02:59:14;5.13;;;1.80;;
16524;SDS011;8375;33.594;-117.718;2023-03-07T03:01:48;4.13;;;1.20;;
16524;SDS011;8375;33.594;-117.718;2023-03-07T03:04:17;5.07;;;1.20;;
16524;SDS011;8375;33.594;-117.718;2023-03-07T03:06:46;6.23;;;1.27;;
16524;SDS011;8375;33.594;-117.718;2023-03-07T03:09:16;6.93;;;1.43;;
16524;SDS011;8375;33.594;-117.718;2023-03-07T03:11:51;5.47;;;1.50;;
16524;SDS011;8375;33.594;-117.718;2023-03-07T03:14:22;4.37;;;1.70;;
16524;SDS011;8375;33.594;-117.718;2023-03-07T03:16:51;3.00;;;1.43;;
16524;SDS011;8375;33.594;-117.718;2023-03-07T03:19:22;5.23;;;1.20;;
16524;SDS011;8375;33.594;-117.718;2023-03-07T03:21:58;6.80;;;1.60;;
16524;SDS011;8375;33.594;-117.718;2023-03-07T03:24:30;4.77;;;1.67;;
16524;SDS011;8375;33.594;-117.718;2023-03-07T03:26:59;6.03;;;1.30;;
16524;SDS011;8375;33.594;-117.718;2023-03-07T03:29:30;5.27;;;1.30;;
16524;SDS011;8375;33.594;-117.718;2023-03-07T03:31:59;3.87;;;1.40;;
16524;SDS011;8375;33.594;-117.718;2023-03-07T03:34:29;3.60;;;1.40;;
16524;SDS011;8375;33.594;-117.718;2023-03-07T03:36:59;4.80;;;1.60;;
16524;SDS011;8375;33.594;-117.718;2023-03-07T03:39:28;4.90;;;1.70;;
16524;SDS011;8375;33.594;-117.718;2023-03-07T03:41:57;4.97;;;1.37;;
16524;SDS011;8375;33.594;-117.718;2023-03-07T03:44:26;6.73;;;1.17;;
16524;SDS011;8375;33.594;-117.718;2023-03-07T03:46:57;3.70;;;1.20;;
16524;SDS011;8375;33.594;-117.718;2023-03-07T03:49:26;5.43;;;1.30;;
16524;SDS011;8375;33.594;-117.718;2023-03-07T03:51:56;7.33;;;1.17;;
16524;SDS011;8375;33.594;-117.718;2023-03-07T03:54:25;6.83;;;1.60;;
16524;SDS011;8375;33.594;-117.718;2023-03-07T03:56:55;3.77;;;1.17;;
16524;SDS011;8375;33.594;-117.718;2023-03-07T03:59:24;3.17;;;1.20;;
16524;SDS011;8375;33.594;-117.718;2023-03-07T04:01:53;5.57;;;1.30;;
16524;SDS011;8375;33.594;-117.718;2023-03-07T04:04:25;3.90;;;1.10;;
16524;SDS011;8375;33.594;-117.718;2023-03-07T04:06:54;3.87;;;1.20;;
16524;SDS011;8375;33.594;-117.718;2023-03-07T04:09:23;4.90;;;0.97;;
16524;SDS011;8375;33.594;-117.718;2023-03-07T04:11:52;5.03;;;1.47;;
16524;SDS011;8375;33.594;-117.718;2023-03-07T04:14:21;5.13;;;1.47;;
16524;SDS011;8375;33.594;-117.718;2023-03-07T04:16:50;3.67;;;1.30;;
16524;SDS011;8375;33.594;-117.718;2023-03-07T04:19:19;4.07;;;1.07;;
16524;SDS011;8375;33.594;-117.718;2023-03-07T04:21:50;4.17;;;1.20;;
16524;SDS011;8375;33.594;-117.718;2023-03-07T04:24:19;4.80;;;1.13;;
16524;SDS011;8375;33.594;-117.718;2023-03-07T04:26:47;6.27;;;1.60;;
16524;SDS011;8375;33.594;-117.718;2023-03-07T04:29:16;4.20;;;1.20;;
16524;SDS011;8375;33.594;-117.718;2023-03-07T04:31:45;3.93;;;1.10;;
16524;SDS011;8375;33.594;-117.718;2023-03-07T04:34:14;4.03;;;1.00;;
16524;SDS011;8375;33.594;-117.718;2023-03-07T04:36:43;5.40;;;1.27;;
16524;SDS011;8375;33.594;-117.718;2023-03-07T04:39:14;2.03;;;1.10;;
16524;SDS011;8375;33.594;-117.718;2023-03-07T04:41:43;5.77;;;1.67;;
16524;SDS011;8375;33.594;-117.718;2023-03-07T04:44:12;6.77;;;1.30;;
16524;SDS011;8375;33.594;-117.718;2023-03-07T04:46:41;3.77;;;1.50;;
16524;SDS011;8375;33.594;-117.718;2023-03-07T04:49:10;3.00;;;1.23;;
16524;SDS011;8375;33.594;-117.718;2023-03-07T04:51:39;5.30;;;1.87;;
16524;SDS011;8375;33.594;-117.718;2023-03-07T04:54:08;5.57;;;2.03;;
16524;SDS011;8375;33.594;-117.718;2023-03-07T04:56:38;3.33;;;1.60;;
16524;SDS011;8375;33.594;-117.718;2023-03-07T04:59:07;4.33;;;1.40;;
16524;SDS011;8375;33.594;-117.718;2023-03-07T05:01:36;6.10;;;1.80;;
16524;SDS011;8375;33.594;-117.718;2023-03-07T05:04:05;6.33;;;1.70;;
16524;SDS011;8375;33.594;-117.718;2023-03-07T05:06:34;4.70;;;1.43;;
16524;SDS011;8375;33.594;-117.718;2023-03-07T05:09:02;2.07;;;1.13;;
16524;SDS011;8375;33.594;-117.718;2023-03-07T05:11:31;10.60;;;1.80;;
16524;SDS011;8375;33.594;-117.718;2023-03-07T05:14:02;7.73;;;1.60;;
16524;SDS011;8375;33.594;-117.718;2023-03-07T05:16:31;7.07;;;1.90;;
16524;SDS011;8375;33.594;-117.718;2023-03-07T05:18:59;6.23;;;1.57;;
16524;SDS011;8375;33.594;-117.718;2023-03-07T05:21:28;5.53;;;1.60;;
16524;SDS011;8375;33.594;-117.718;2023-03-07T05:23:58;7.90;;;1.90;;
16524;SDS011;8375;33.594;-117.718;2023-03-07T05:26:27;4.13;;;1.67;;
16524;SDS011;8375;33.594;-117.718;2023-03-07T05:28:56;5.00;;;1.60;;
16524;SDS011;8375;33.594;-117.718;2023-03-07T05:31:27;4.87;;;1.07;;
16524;SDS011;8375;33.594;-117.718;2023-03-07T05:33:55;4.73;;;1.60;;
16524;SDS011;8375;33.594;-117.718;2023-03-07T05:36:24;4.50;;;1.63;;
16524;SDS011;8375;33.594;-117.718;2023-03-07T05:38:53;2.30;;;1.37;;
16524;SDS011;8375;33.594;-117.718;2023-03-07T05:41:22;4.83;;;1.57;;
16524;SDS011;8375;33.594;-117.718;2023-03-07T05:43:51;3.40;;;1.47;;
16524;SDS011;8375;33.594;-117.718;2023-03-07T05:46:21;3.93;;;1.50;;
16524;SDS011;8375;33.594;-117.718;2023-03-07T05:48:52;3.03;;;1.13;;
16524;SDS011;8375;33.594;-117.718;2023-03-07T05:51:20;5.00;;;1.10;;
16524;SDS011;8375;33.594;-117.718;2023-03-07T05:53:49;6.77;;;1.40;;
16524;SDS011;8375;33.594;-117.718;2023-03-07T05:56:18;4.13;;;1.30;;
16524;SDS011;8375;33.594;-117.718;2023-03-07T05:58:47;7.80;;;1.60;;
16524;SDS011;8375;33.594;-117.718;2023-03-07T06:01:17;7.17;;;1.10;;
16524;SDS011;8375;33.594;-117.718;2023-03-07T06:03:46;4.93;;;1.00;;
16524;SDS011;8375;33.594;-117.718;2023-03-07T06:06:16;3.23;;;1.10;;
16524;SDS011;8375;33.594;-117.718;2023-03-07T06:08:46;7.43;;;1.30;;
16524;SDS011;8375;33.594;-117.718;2023-03-07T06:11:20;6.13;;;1.27;;
16524;SDS011;8375;33.594;-117.718;2023-03-07T06:13:52;3.50;;;1.30;;
16524;SDS011;8375;33.594;-117.718;2023-03-07T06:16:21;2.87;;;1.20;;
16524;SDS011;8375;33.594;-117.718;2023-03-07T06:18:50;3.40;;;1.23;;
16524;SDS011;8375;33.594;-117.718;2023-03-07T06:21:20;4.13;;;1.50;;
16524;SDS011;8375;33.594;-117.718;2023-03-07T06:23:49;5.53;;;1.60;;
16524;SDS011;8375;33.594;-117.718;2023-03-07T06:26:19;4.40;;;1.80;;
16524;SDS011;8375;33.594;-117.718;2023-03-07T06:28:49;2.87;;;1.40;;
16524;SDS011;8375;33.594;-117.718;2023-03-07T06:31:18;11.33;;;2.20;;
16524;SDS011;8375;33.594;-117.718;2023-03-07T06:33:50;3.30;;;1.30;;
16524;SDS011;8375;33.594;-117.718;2023-03-07T06:36:21;8.43;;;1.53;;
16524;SDS011;8375;33.594;-117.718;2023-03-07T06:38:50;4.60;;;1.40;;
16524;SDS011;8375;33.594;-117.718;2023-03-07T06:41:19;6.27;;;1.27;;
16524;SDS011;8375;33.594;-117.718;2023-03-07T06:43:49;5.60;;;2.17;;
16524;SDS011;8375;33.594;-117.718;2023-03-07T06:46:18;6.57;;;2.43;;
16524;SDS011;8375;33.594;-117.718;2023-03-07T06:48:47;7.83;;;2.03;;
16524;SDS011;8375;33.594;-117.718;2023-03-07T06:51:21;5.63;;;1.80;;
16524;SDS011;8375;33.594;-117.718;2023-03-07T06:53:50;4.03;;;2.10;;
16524;SDS011;8375;33.594;-117.718;2023-03-07T06:56:19;7.23;;;2.53;;
16524;SDS011;8375;33.594;-117.718;2023-03-07T06:58:48;5.23;;;2.23;;
16524;SDS011;8375;33.594;-117.718;2023-03-07T07:01:16;4.07;;;2.10;;
16524;SDS011;8375;33.594;-117.718;2023-03-07T07:03:46;6.07;;;2.30;;
16524;SDS011;8375;33.594;-117.718;2023-03-07T07:06:15;4.10;;;1.80;;
16524;SDS011;8375;33.594;-117.718;2023-03-07T07:08:45;7.63;;;2.37;;
16524;SDS011;8375;33.594;-117.718;2023-03-07T07:11:14;4.97;;;2.40;;
16524;SDS011;8375;33.594;-117.718;2023-03-07T07:13:43;7.40;;;1.90;;
16524;SDS011;8375;33.594;-117.718;2023-03-07T07:16:11;6.27;;;1.90;;
16524;SDS011;8375;33.594;-117.718;2023-03-07T07:18:41;7.33;;;1.70;;
16524;SDS011;8375;33.594;-117.718;2023-03-07T07:21:09;4.47;;;1.70;;
16524;SDS011;8375;33.594;-117.718;2023-03-07T07:23:38;4.10;;;2.40;;
16524;SDS011;8375;33.594;-117.718;2023-03-07T07:26:10;6.53;;;1.90;;
16524;SDS011;8375;33.594;-117.718;2023-03-07T07:28:39;5.37;;;2.30;;
16524;SDS011;8375;33.594;-117.718;2023-03-07T07:31:08;4.97;;;1.90;;
16524;SDS011;8375;33.594;-117.718;2023-03-07T07:33:38;5.20;;;1.83;;
16524;SDS011;8375;33.594;-117.718;2023-03-07T07:36:07;3.73;;;1.70;;
16524;SDS011;8375;33.594;-117.718;2023-03-07T07:38:36;4.03;;;2.03;;
16524;SDS011;8375;33.594;-117.718;2023-03-07T07:41:05;5.10;;;1.87;;
16524;SDS011;8375;33.594;-117.718;2023-03-07T07:43:36;4.20;;;1.80;;
16524;SDS011;8375;33.594;-117.718;2023-03-07T07:46:04;8.13;;;2.40;;
16524;SDS011;8375;33.594;-117.718;2023-03-07T07:48:33;5.70;;;1.67;;
16524;SDS011;8375;33.594;-117.718;2023-03-07T07:51:02;5.67;;;1.63;;
16524;SDS011;8375;33.594;-117.718;2023-03-07T07:53:31;3.23;;;1.40;;
16524;SDS011;8375;33.594;-117.718;2023-03-07T07:56:01;5.73;;;1.60;;
16524;SDS011;8375;33.594;-117.718;2023-03-07T07:58:30;7.60;;;1.70;;
16524;SDS011;8375;33.594;-117.718;2023-03-07T08:01:01;3.23;;;1.80;;
16524;SDS011;8375;33.594;-117.718;2023-03-07T08:03:39;4.53;;;1.70;;
16524;SDS011;8375;33.594;-117.718;2023-03-07T08:06:08;9.30;;;1.80;;
16524;SDS011;8375;33.594;-117.718;2023-03-07T08:08:37;3.63;;;2.10;;
16524;SDS011;8375;33.594;-117.718;2023-03-07T08:11:07;5.33;;;1.93;;
16524;SDS011;8375;33.594;-117.718;2023-03-07T08:13:36;5.57;;;1.80;;
16524;SDS011;8375;33.594;-117.718;2023-03-07T08:16:10;4.87;;;1.67;;
16524;SDS011;8375;33.594;-117.718;2023-03-07T08:18:40;6.13;;;1.90;;
16524;SDS011;8375;33.594;-117.718;2023-03-07T08:21:09;4.77;;;2.33;;
16524;SDS011;8375;33.594;-117.718;2023-03-07T08:23:37;7.23;;;1.80;;
16524;SDS011;8375;33.594;-117.718;2023-03-07T08:26:07;5.47;;;1.87;;
16524;SDS011;8375;33.594;-117.718;2023-03-07T08:28:38;4.87;;;1.70;;
16524;SDS011;8375;33.594;-117.718;2023-03-07T08:31:10;10.37;;;2.77;;
16524;SDS011;8375;33.594;-117.718;2023-03-07T08:33:41;8.10;;;1.73;;
16524;SDS011;8375;33.594;-117.718;2023-03-07T08:36:10;7.40;;;2.10;;
16524;SDS011;8375;33.594;-117.718;2023-03-07T08:38:38;6.23;;;2.10;;
16524;SDS011;8375;33.594;-117.718;2023-03-07T08:41:07;6.60;;;2.20;;
16524;SDS011;8375;33.594;-117.718;2023-03-07T08:43:36;7.37;;;2.20;;
16524;SDS011;8375;33.594;-117.718;2023-03-07T08:46:06;4.50;;;2.07;;
16524;SDS011;8375;33.594;-117.718;2023-03-07T08:48:36;11.40;;;2.50;;
16524;SDS011;8375;33.594;-117.718;2023-03-07T08:51:06;6.07;;;2.37;;
16524;SDS011;8375;33.594;-117.718;2023-03-07T08:53:35;7.13;;;2.30;;
16524;SDS011;8375;33.594;-117.718;2023-03-07T08:56:07;3.83;;;2.00;;
16524;SDS011;8375;33.594;-117.718;2023-03-07T08:58:37;5.87;;;2.10;;
16524;SDS011;8375;33.594;-117.718;2023-03-07T09:01:06;7.43;;;2.27;;
16524;SDS011;8375;33.594;-117.718;2023-03-07T09:03:37;4.33;;;2.33;;
16524;SDS011;8375;33.594;-117.718;2023-03-07T09:06:06;7.83;;;2.20;;
16524;SDS011;8375;33.594;-117.718;2023-03-07T09:08:34;6.73;;;2.73;;
16524;SDS011;8375;33.594;-117.718;2023-03-07T09:11:03;6.13;;;1.97;;
16524;SDS011;8375;33.594;-117.718;2023-03-07T09:13:33;6.37;;;2.10;;
16524;SDS011;8375;33.594;-117.718;2023-03-07T09:16:03;7.03;;;2.57;;
16524;SDS011;8375;33.594;-117.718;2023-03-07T09:18:32;8.80;;;2.50;;
16524;SDS011;8375;33.594;-117.718;2023-03-07T09:21:03;5.77;;;2.57;;
16524;SDS011;8375;33.594;-117.718;2023-03-07T09:23:33;10.43;;;2.50;;
16524;SDS011;8375;33.594;-117.718;2023-03-07T09:26:02;5.90;;;2.33;;
16524;SDS011;8375;33.594;-117.718;2023-03-07T09:28:31;11.97;;;2.33;;
16524;SDS011;8375;33.594;-117.718;2023-03-07T09:31:04;7.27;;;2.87;;
16524;SDS011;8375;33.594;-117.718;2023-03-07T09:33:34;6.10;;;2.53;;
16524;SDS011;8375;33.594;-117.718;2023-03-07T09:36:05;4.87;;;2.23;;
16524;SDS011;8375;33.594;-117.718;2023-03-07T09:38:36;8.53;;;2.80;;
16524;SDS011;8375;33.594;-117.718;2023-03-07T09:41:07;6.33;;;2.47;;
16524;SDS011;8375;33.594;-117.718;2023-03-07T09:43:50;5.90;;;2.33;;
16524;SDS011;8375;33.594;-117.718;2023-03-07T09:46:27;6.90;;;2.80;;
16524;SDS011;8375;33.594;-117.718;2023-03-07T09:49:08;9.07;;;2.50;;
16524;SDS011;8375;33.594;-117.718;2023-03-07T09:51:47;6.40;;;2.60;;
16524;SDS011;8375;33.594;-117.718;2023-03-07T09:54:19;4.70;;;2.37;;
16524;SDS011;8375;33.594;-117.718;2023-03-07T09:56:51;7.07;;;2.47;;
16524;SDS011;8375;33.594;-117.718;2023-03-07T09:59:23;5.17;;;2.67;;
16524;SDS011;8375;33.594;-117.718;2023-03-07T10:02:02;8.63;;;2.40;;
16524;SDS011;8375;33.594;-117.718;2023-03-07T10:04:38;6.40;;;2.67;;
16524;SDS011;8375;33.594;-117.718;2023-03-07T10:07:14;6.03;;;2.40;;
16524;SDS011;8375;33.594;-117.718;2023-03-07T10:09:52;5.27;;;2.17;;
16524;SDS011;8375;33.594;-117.718;2023-03-07T10:12:53;5.07;;;2.27;;
16524;SDS011;8375;33.594;-117.718;2023-03-07T10:15:39;3.73;;;2.10;;
16524;SDS011;8375;33.594;-117.718;2023-03-07T10:18:18;4.63;;;2.00;;
16524;SDS011;8375;33.594;-117.718;2023-03-07T10:20:56;9.13;;;2.30;;
16524;SDS011;8375;33.594;-117.718;2023-03-07T10:23:42;6.33;;;1.93;;
16524;SDS011;8375;33.594;-117.718;2023-03-07T10:26:33;3.57;;;2.37;;
16524;SDS011;8375;33.594;-117.718;2023-03-07T10:29:09;6.27;;;2.30;;
16524;SDS011;8375;33.594;-117.718;2023-03-07T10:31:41;7.60;;;2.43;;
16524;SDS011;8375;33.594;-117.718;2023-03-07T10:34:15;3.90;;;2.30;;
16524;SDS011;8375;33.594;-117.718;2023-03-07T10:36:49;10.10;;;2.73;;
16524;SDS011;8375;33.594;-117.718;2023-03-07T10:39:26;10.73;;;2.53;;
16524;SDS011;8375;33.594;-117.718;2023-03-07T10:42:01;4.43;;;2.97;;
16524;SDS011;8375;33.594;-117.718;2023-03-07T10:44:30;5.43;;;2.33;;
16524;SDS011;8375;33.594;-117.718;2023-03-07T10:47:00;4.57;;;2.30;;
16524;SDS011;8375;33.594;-117.718;2023-03-07T10:49:30;7.53;;;2.50;;
16524;SDS011;8375;33.594;-117.718;2023-03-07T10:52:04;5.33;;;2.60;;
16524;SDS011;8375;33.594;-117.718;2023-03-07T10:54:41;3.93;;;1.80;;
16524;SDS011;8375;33.594;-117.718;2023-03-07T10:57:10;7.37;;;2.60;;
16524;SDS011;8375;33.594;-117.718;2023-03-07T10:59:41;5.93;;;2.13;;
16524;SDS011;8375;33.594;-117.718;2023-03-07T11:05:18;4.03;;;1.70;;
16524;SDS011;8375;33.594;-117.718;2023-03-07T11:07:56;4.90;;;2.03;;
16524;SDS011;8375;33.594;-117.718;2023-03-07T11:10:30;2.97;;;1.70;;
16524;SDS011;8375;33.594;-117.718;2023-03-07T11:13:05;5.23;;;1.87;;
16524;SDS011;8375;33.594;-117.718;2023-03-07T11:15:40;4.30;;;1.90;;
16524;SDS011;8375;33.594;-117.718;2023-03-07T11:18:23;5.83;;;1.97;;
16524;SDS011;8375;33.594;-117.718;2023-03-07T11:20:54;6.60;;;2.27;;
16524;SDS011;8375;33.594;-117.718;2023-03-07T11:23:24;8.60;;;2.30;;
16524;SDS011;8375;33.594;-117.718;2023-03-07T11:25:57;9.23;;;2.47;;
16524;SDS011;8375;33.594;-117.718;2023-03-07T11:28:41;5.90;;;1.93;;
16524;SDS011;8375;33.594;-117.718;2023-03-07T11:31:12;3.27;;;1.70;;
16524;SDS011;8375;33.594;-117.718;2023-03-07T11:33:49;6.53;;;2.10;;
16524;SDS011;8375;33.594;-117.718;2023-03-07T11:36:23;5.17;;;2.30;;
16524;SDS011;8375;33.594;-117.718;2023-03-07T11:38:58;3.60;;;2.17;;
16524;SDS011;8375;33.594;-117.718;2023-03-07T11:41:34;3.57;;;1.70;;
16524;SDS011;8375;33.594;-117.718;2023-03-07T11:44:09;5.20;;;2.03;;
16524;SDS011;8375;33.594;-117.718;2023-03-07T11:46:53;4.07;;;2.20;;
16524;SDS011;8375;33.594;-117.718;2023-03-07T11:49:42;5.30;;;2.20;;
16524;SDS011;8375;33.594;-117.718;2023-03-07T11:52:31;6.70;;;2.10;;
16524;SDS011;8375;33.594;-117.718;2023-03-07T11:55:20;5.90;;;2.20;;
16524;SDS011;8375;33.594;-117.718;2023-03-07T11:57:59;6.27;;;2.33;;
16524;SDS011;8375;33.594;-117.718;2023-03-07T12:00:44;5.33;;;2.30;;
16524;SDS011;8375;33.594;-117.718;2023-03-07T12:06:24;7.53;;;2.10;;
16524;SDS011;8375;33.594;-117.718;2023-03-07T12:09:08;6.60;;;2.20;;
16524;SDS011;8375;33.594;-117.718;2023-03-07T12:11:50;3.60;;;2.20;;
16524;SDS011;8375;33.594;-117.718;2023-03-07T12:14:34;5.10;;;2.20;;
16524;SDS011;8375;33.594;-117.718;2023-03-07T12:17:12;6.97;;;2.37;;
16524;SDS011;8375;33.594;-117.718;2023-03-07T12:20:01;4.87;;;2.10;;
16524;SDS011;8375;33.594;-117.718;2023-03-07T12:22:49;6.63;;;2.50;;
16524;SDS011;8375;33.594;-117.718;2023-03-07T12:25:32;5.40;;;2.00;;
16524;SDS011;8375;33.594;-117.718;2023-03-07T12:28:05;6.70;;;1.80;;
16524;SDS011;8375;33.594;-117.718;2023-03-07T12:30:46;6.10;;;2.13;;
16524;SDS011;8375;33.594;-117.718;2023-03-07T12:33:24;7.23;;;2.17;;
16524;SDS011;8375;33.594;-117.718;2023-03-07T12:35:58;6.87;;;2.17;;
16524;SDS011;8375;33.594;-117.718;2023-03-07T12:38:33;4.30;;;2.50;;
16524;SDS011;8375;33.594;-117.718;2023-03-07T12:41:13;6.33;;;2.00;;
16524;SDS011;8375;33.594;-117.718;2023-03-07T12:43:55;6.00;;;2.23;;
16524;SDS011;8375;33.594;-117.718;2023-03-07T12:46:33;4.13;;;2.00;;
16524;SDS011;8375;33.594;-117.718;2023-03-07T12:49:12;5.23;;;2.17;;
16524;SDS011;8375;33.594;-117.718;2023-03-07T12:51:44;6.07;;;2.23;;
16524;SDS011;8375;33.594;-117.718;2023-03-07T12:54:19;5.53;;;2.30;;
16524;SDS011;8375;33.594;-117.718;2023-03-07T12:56:53;3.50;;;2.20;;
16524;SDS011;8375;33.594;-117.718;2023-03-07T12:59:24;5.53;;;2.43;;
16524;SDS011;8375;33.594;-117.718;2023-03-07T13:01:57;5.97;;;2.27;;
16524;SDS011;8375;33.594;-117.718;2023-03-07T13:04:30;5.77;;;2.50;;
16524;SDS011;8375;33.594;-117.718;2023-03-07T13:07:06;6.30;;;2.03;;
16524;SDS011;8375;33.594;-117.718;2023-03-07T13:09:37;6.23;;;2.40;;
16524;SDS011;8375;33.594;-117.718;2023-03-07T13:14:57;4.10;;;2.10;;
16524;SDS011;8375;33.594;-117.718;2023-03-07T13:23:31;6.20;;;2.40;;
16524;SDS011;8375;33.594;-117.718;2023-03-07T13:26:01;8.97;;;2.50;;
16524;SDS011;8375;33.594;-117.718;2023-03-07T13:28:37;7.90;;;2.63;;
16524;SDS011;8375;33.594;-117.718;2023-03-07T13:40:22;5.57;;;1.97;;
16524;SDS011;8375;33.594;-117.718;2023-03-07T13:55:12;4.13;;;1.70;;
16524;SDS011;8375;33.594;-117.718;2023-03-07T13:57:48;4.83;;;2.20;;
16524;SDS011;8375;33.594;-117.718;2023-03-07T14:00:20;5.57;;;1.80;;
16524;SDS011;8375;33.594;-117.718;2023-03-07T14:02:51;4.40;;;2.43;;
16524;SDS011;8375;33.594;-117.718;2023-03-07T14:05:21;3.67;;;1.80;;
16524;SDS011;8375;33.594;-117.718;2023-03-07T14:07:51;4.63;;;2.00;;
16524;SDS011;8375;33.594;-117.718;2023-03-07T14:10:22;6.13;;;1.80;;
16524;SDS011;8375;33.594;-117.718;2023-03-07T14:16:17;6.23;;;2.50;;
16524;SDS011;8375;33.594;-117.718;2023-03-07T14:18:58;4.50;;;2.07;;
16524;SDS011;8375;33.594;-117.718;2023-03-07T14:21:39;4.37;;;2.20;;
16524;SDS011;8375;33.594;-117.718;2023-03-07T14:27:17;6.13;;;1.87;;
16524;SDS011;8375;33.594;-117.718;2023-03-07T14:29:46;4.93;;;1.80;;
16524;SDS011;8375;33.594;-117.718;2023-03-07T14:32:24;5.20;;;1.90;;
16524;SDS011;8375;33.594;-117.718;2023-03-07T14:34:54;4.70;;;1.70;;
16524;SDS011;8375;33.594;-117.718;2023-03-07T14:37:24;4.60;;;1.90;;
16524;SDS011;8375;33.594;-117.718;2023-03-07T14:39:57;5.87;;;2.10;;
16524;SDS011;8375;33.594;-117.718;2023-03-07T14:42:44;7.97;;;2.13;;
16524;SDS011;8375;33.594;-117.718;2023-03-07T14:45:21;6.00;;;1.97;;
16524;SDS011;8375;33.594;-117.718;2023-03-07T14:47:57;7.10;;;2.00;;
16524;SDS011;8375;33.594;-117.718;2023-03-07T14:50:40;6.33;;;3.00;;
16524;SDS011;8375;33.594;-117.718;2023-03-07T14:53:14;2.87;;;1.57;;
16524;SDS011;8375;33.594;-117.718;2023-03-07T14:55:46;5.07;;;1.90;;
16524;SDS011;8375;33.594;-117.718;2023-03-07T14:58:20;5.57;;;2.00;;
16524;SDS011;8375;33.594;-117.718;2023-03-07T15:00:57;2.77;;;1.80;;
16524;SDS011;8375;33.594;-117.718;2023-03-07T15:03:27;3.10;;;1.97;;
16524;SDS011;8375;33.594;-117.718;2023-03-07T15:05:56;5.47;;;1.97;;
16524;SDS011;8375;33.594;-117.718;2023-03-07T15:08:27;5.27;;;2.67;;
16524;SDS011;8375;33.594;-117.718;2023-03-07T15:10:58;3.23;;;2.27;;
16524;SDS011;8375;33.594;-117.718;2023-03-07T15:13:35;2.87;;;2.17;;
16524;SDS011;8375;33.594;-117.718;2023-03-07T15:16:10;4.47;;;2.03;;
16524;SDS011;8375;33.594;-117.718;2023-03-07T15:18:44;5.13;;;2.47;;
16524;SDS011;8375;33.594;-117.718;2023-03-07T15:21:16;4.20;;;2.67;;
16524;SDS011;8375;33.594;-117.718;2023-03-07T15:23:50;5.67;;;2.87;;
16524;SDS011;8375;33.594;-117.718;2023-03-07T15:26:21;5.50;;;2.77;;
16524;SDS011;8375;33.594;-117.718;2023-03-07T15:28:58;7.37;;;3.40;;
16524;SDS011;8375;33.594;-117.718;2023-03-07T15:31:28;8.83;;;2.70;;
16524;SDS011;8375;33.594;-117.718;2023-03-07T15:34:11;6.40;;;3.33;;
16524;SDS011;8375;33.594;-117.718;2023-03-07T15:36:49;5.50;;;2.77;;
16524;SDS011;8375;33.594;-117.718;2023-03-07T15:39:27;6.00;;;3.37;;
16524;SDS011;8375;33.594;-117.718;2023-03-07T15:42:03;8.13;;;3.40;;